Time;durP1;ratioP1;P1;durP2;ratioP2;P2;SDS_P1;SDS_P2;PMS_P1;PMS_P2;Temp;Humidity;BMP_temperature;BMP_pressure;BME280_temperature;BME280_humidity;BME280_pressure;Samples;Min_cycle;Max_cycle;Signal;HPM_P1;HPM_P2
2022/03/05 00:00:30;;;;;;;96.08;76.05;;;26.60;84.10;;;;;;1805180;78;21217;-85
2022/03/05 00:03:02;;;;;;;86.20;70.22;;;26.60;84.40;;;;;;1803111;78;21168;-86
2022/03/05 00:05:33;;;;;;;90.07;71.60;;;26.60;84.40;;;;;;1804249;79;21201;-85
2022/03/05 00:08:04;;;;;;;100.30;81.32;;;26.50;84.80;;;;;;1807841;78;21185;-85
2022/03/05 00:10:38;;;;;;;87.17;72.15;;;26.50;85.10;;;;;;1823668;78;21073;-86
2022/03/05 00:13:09;;;;;;;90.77;72.22;;;26.60;85.50;;;;;;1817856;78;21126;-85
2022/03/05 00:15:43;;;;;;;96.00;75.12;;;26.60;84.90;;;;;;1829526;78;21141;-86
2022/03/05 00:18:15;;;;;;;91.10;75.32;;;26.60;84.90;;;;;;1827514;77;21078;-86
2022/03/05 00:20:46;;;;;;;105.63;84.72;;;26.50;85.10;;;;;;1824793;77;21113;-86
2022/03/05 00:23:18;;;;;;;103.00;84.55;;;26.60;85.70;;;;;;1831336;77;21240;-86
2022/03/05 00:25:49;;;;;;;94.97;81.65;;;26.50;85.70;;;;;;1829553;78;21100;-85
2022/03/05 00:28:20;;;;;;;96.97;77.80;;;26.60;86.00;;;;;;1829353;77;22124;-86
2022/03/05 00:30:51;;;;;;;99.95;81.42;;;26.60;85.80;;;;;;1825020;78;21530;-85
2022/03/05 00:33:22;;;;;;;88.95;77.55;;;26.60;86.10;;;;;;1828237;78;21189;-86
2022/03/05 00:35:52;;;;;;;85.83;74.20;;;26.60;86.00;;;;;;1821355;78;21212;-86
2022/03/05 00:38:23;;;;;;;86.75;73.50;;;26.70;86.00;;;;;;1824025;77;21151;-87
2022/03/05 00:40:53;;;;;;;90.12;72.53;;;26.70;85.80;;;;;;1824040;77;21669;-86
2022/03/05 00:43:24;;;;;;;86.75;72.87;;;26.70;85.80;;;;;;1827971;78;21590;-86
2022/03/05 00:45:55;;;;;;;91.53;73.50;;;26.80;86.00;;;;;;1828846;78;21864;-85
2022/03/05 00:48:26;;;;;;;86.20;72.53;;;26.90;86.20;;;;;;1827128;77;21159;-86
2022/03/05 00:50:56;;;;;;;86.42;70.40;;;26.90;86.20;;;;;;1827672;78;21167;-86
2022/03/05 00:53:27;;;;;;;95.40;77.27;;;27.00;86.20;;;;;;1828146;77;21272;-86
2022/03/05 00:55:58;;;;;;;88.42;72.92;;;27.00;86.00;;;;;;1826758;77;21179;-85
2022/03/05 00:58:28;;;;;;;90.62;70.57;;;27.10;86.10;;;;;;1823153;78;21101;-85
2022/03/05 01:00:59;;;;;;;78.90;69.75;;;27.20;85.40;;;;;;1824140;77;21634;-85
2022/03/05 01:03:30;;;;;;;75.05;66.82;;;27.20;85.00;;;;;;1798910;79;21626;-87
2022/03/05 01:06:01;;;;;;;82.92;67.27;;;27.20;84.60;;;;;;1821697;77;21115;-84
2022/03/05 01:08:33;;;;;;;76.90;66.92;;;27.20;85.80;;;;;;1825220;78;21182;-87
2022/03/05 01:11:04;;;;;;;80.95;67.50;;;27.20;85.20;;;;;;1836614;78;21115;-85
2022/03/05 01:13:35;;;;;;;86.12;64.27;;;27.30;85.00;;;;;;1862927;75;21193;-86
2022/03/05 01:16:06;;;;;;;77.75;64.42;;;27.40;84.80;;;;;;1834279;78;21247;-86
2022/03/05 01:18:37;;;;;;;77.27;62.70;;;27.40;84.90;;;;;;1834090;78;21150;-86
2022/03/05 01:21:08;;;;;;;73.72;61.70;;;27.50;84.70;;;;;;1793350;78;21559;-86
2022/03/05 01:23:39;;;;;;;79.75;63.35;;;27.50;84.60;;;;;;1819402;79;21159;-86
2022/03/05 01:26:10;;;;;;;79.40;63.15;;;27.60;84.30;;;;;;1809043;78;21198;-86
2022/03/05 01:28:40;;;;;;;77.30;64.32;;;27.70;84.40;;;;;;1796051;78;21189;-73
2022/03/05 01:31:11;;;;;;;77.42;62.80;;;27.80;83.20;;;;;;1798584;78;21772;-72
2022/03/05 01:33:43;;;;;;;72.90;61.10;;;27.80;83.30;;;;;;1800614;78;21172;-74
2022/03/05 01:36:13;;;;;;;70.05;60.73;;;27.90;82.90;;;;;;1795832;78;21174;-74
2022/03/05 01:38:47;;;;;;;181.60;71.82;;;27.90;82.70;;;;;;1803707;78;21250;-71
2022/03/05 01:41:17;;;;;;;73.87;61.30;;;28.00;82.50;;;;;;1837091;78;21142;-72
2022/03/05 01:43:50;;;;;;;75.40;61.05;;;28.00;82.30;;;;;;1837081;78;21539;-74
2022/03/05 01:46:24;;;;;;;80.25;65.42;;;28.10;82.20;;;;;;1833041;77;21123;-73
2022/03/05 01:48:55;;;;;;;80.65;65.35;;;28.20;82.20;;;;;;1834630;77;21244;-73
2022/03/05 01:51:26;;;;;;;76.50;65.87;;;28.20;81.90;;;;;;1829469;78;21267;-73
2022/03/05 01:53:57;;;;;;;89.03;72.37;;;28.30;81.70;;;;;;1832491;77;21114;-73
2022/03/05 01:56:28;;;;;;;78.92;68.67;;;28.40;81.70;;;;;;1830004;77;21618;-73
2022/03/05 01:59:00;;;;;;;83.52;67.60;;;28.40;81.10;;;;;;1840519;77;21131;-73
2022/03/05 02:01:31;;;;;;;70.75;60.43;;;28.50;80.80;;;;;;1803288;78;21248;-73
2022/03/05 02:04:02;;;;;;;69.20;59.10;;;28.60;79.60;;;;;;1833499;78;21155;-73
2022/03/05 02:06:33;;;;;;;73.42;62.70;;;28.70;79.60;;;;;;1796728;78;21174;-73
2022/03/05 02:09:04;;;;;;;74.72;60.15;;;28.70;79.90;;;;;;1834162;77;21260;-73
2022/03/05 02:11:35;;;;;;;68.80;57.55;;;28.80;79.30;;;;;;1815976;77;21170;-72
2022/03/05 02:14:06;;;;;;;70.20;62.60;;;28.90;78.60;;;;;;1818093;78;21123;-72
2022/03/05 02:16:37;;;;;;;69.90;61.15;;;28.90;78.80;;;;;;1807988;78;21210;-71
2022/03/05 02:19:08;;;;;;;77.30;63.65;;;29.00;79.10;;;;;;1801967;78;21676;-74
2022/03/05 02:21:39;;;;;;;80.03;65.95;;;29.10;79.70;;;;;;1812117;78;21207;-73
2022/03/05 02:24:10;;;;;;;83.03;69.47;;;29.10;80.30;;;;;;1810990;78;21184;-72
2022/03/05 02:26:40;;;;;;;80.75;67.32;;;29.10;80.20;;;;;;1772578;79;21676;-70
2022/03/05 02:29:11;;;;;;;78.07;64.95;;;29.20;80.80;;;;;;1799070;78;21167;-71
2022/03/05 02:31:41;;;;;;;69.65;62.08;;;29.30;80.70;;;;;;1799589;78;21183;-70
2022/03/05 02:34:12;;;;;;;75.57;59.10;;;29.30;80.10;;;;;;1799436;78;21172;-71
2022/03/05 02:36:42;;;;;;;68.90;59.58;;;29.30;79.50;;;;;;1808154;78;21241;-73
2022/03/05 02:39:13;;;;;;;72.25;60.52;;;29.30;79.60;;;;;;1797639;78;21229;-72
2022/03/05 02:41:44;;;;;;;69.72;58.40;;;29.40;79.30;;;;;;1801460;78;21151;-71
2022/03/05 02:44:15;;;;;;;63.33;56.28;;;29.40;78.70;;;;;;1785490;78;21174;-73
2022/03/05 02:46:46;;;;;;;64.03;56.08;;;29.50;77.50;;;;;;1794822;78;21618;-73
2022/03/05 02:49:16;;;;;;;65.32;56.42;;;29.60;76.50;;;;;;1809769;78;21217;-74
2022/03/05 02:51:47;;;;;;;59.25;50.65;;;29.60;75.60;;;;;;1808893;78;21241;-73
2022/03/05 02:54:18;;;;;;;55.08;48.45;;;29.70;75.40;;;;;;1804712;78;21115;-75
2022/03/05 02:56:49;;;;;;;53.28;47.45;;;29.80;74.70;;;;;;1808865;78;21265;-74
2022/03/05 02:59:19;;;;;;;60.48;47.85;;;29.90;74.20;;;;;;1764901;79;21161;-73
2022/03/05 03:01:50;;;;;;;54.45;46.58;;;30.00;74.30;;;;;;1767575;79;21210;-73
2022/03/05 03:04:21;;;;;;;48.50;43.20;;;30.10;74.40;;;;;;1763474;79;21817;-73
2022/03/05 03:06:52;;;;;;;46.70;40.25;;;30.10;72.10;;;;;;1767162;79;21151;-74
2022/03/05 03:09:23;;;;;;;47.88;41.58;;;30.20;71.10;;;;;;1761790;80;21555;-74
2022/03/05 03:11:54;;;;;;;44.98;39.08;;;30.30;70.20;;;;;;1792955;78;21226;-73
2022/03/05 03:14:25;;;;;;;44.70;38.88;;;30.40;69.90;;;;;;1861044;75;21674;-74
2022/03/05 03:16:55;;;;;;;45.48;39.23;;;30.50;69.50;;;;;;1856329;75;21142;-74
2022/03/05 03:19:26;;;;;;;43.28;38.13;;;30.60;69.00;;;;;;1834000;77;21134;-73
2022/03/05 03:21:57;;;;;;;48.38;38.58;;;30.70;68.90;;;;;;1826769;77;21604;-73
2022/03/05 03:24:28;;;;;;;44.10;37.67;;;30.80;68.70;;;;;;1860539;76;21099;-73
2022/03/05 03:26:59;;;;;;;46.75;39.23;;;30.90;68.90;;;;;;1861913;76;21146;-72
2022/03/05 03:29:31;;;;;;;47.17;39.60;;;30.90;68.10;;;;;;1860190;75;21221;-73
2022/03/05 03:32:03;;;;;;;42.55;38.10;;;31.00;67.70;;;;;;1863116;76;21648;-73
2022/03/05 03:34:34;;;;;;;41.55;37.00;;;31.10;68.70;;;;;;1862193;76;21631;-73
2022/03/05 03:37:05;;;;;;;39.92;35.75;;;31.10;67.70;;;;;;1862599;77;21177;-74
2022/03/05 03:39:36;;;;;;;40.48;35.33;;;31.20;67.50;;;;;;1863561;75;21713;-73
2022/03/05 03:42:07;;;;;;;41.23;35.10;;;31.30;66.40;;;;;;1860877;77;21216;-73
2022/03/05 03:44:38;;;;;;;39.60;34.48;;;31.40;66.60;;;;;;1863653;77;21107;-71
2022/03/05 03:47:09;;;;;;;39.45;35.13;;;31.50;64.90;;;;;;1863749;75;21115;-73
2022/03/05 03:49:40;;;;;;;37.70;33.67;;;31.70;65.40;;;;;;1860921;75;21232;-73
2022/03/05 03:52:13;;;;;;;46.53;36.68;;;31.80;65.10;;;;;;1858756;75;21213;-72
2022/03/05 03:54:45;;;;;;;44.08;35.10;;;31.80;64.10;;;;;;1866225;75;21149;-72
2022/03/05 03:57:16;;;;;;;39.40;34.20;;;32.00;64.30;;;;;;1836641;78;21198;-72
2022/03/05 03:59:47;;;;;;;37.67;33.33;;;32.10;63.70;;;;;;1856108;76;21607;-74
2022/03/05 04:02:17;;;;;;;39.25;34.58;;;32.20;63.70;;;;;;1830752;77;21174;-74
2022/03/05 04:04:49;;;;;;;42.62;35.33;;;32.20;63.20;;;;;;1859778;75;21252;-74
2022/03/05 04:09:52;;;;;;;38.98;34.35;;;32.40;62.30;;;;;;1857379;76;21823;-73
2022/03/05 04:12:24;;;;;;;40.03;34.53;;;32.50;62.30;;;;;;1862892;75;21197;-76
2022/03/05 04:14:56;;;;;;;44.23;34.90;;;32.60;61.90;;;;;;1821303;78;21123;-74
2022/03/05 04:17:26;;;;;;;42.30;36.25;;;32.60;62.10;;;;;;1835578;76;21698;-72
2022/03/05 04:19:58;;;;;;;39.10;33.95;;;32.70;61.70;;;;;;1859233;75;21114;-72
2022/03/05 04:22:29;;;;;;;38.85;33.80;;;32.80;62.10;;;;;;1860939;75;21177;-72
2022/03/05 04:25:01;;;;;;;36.98;32.60;;;32.90;60.50;;;;;;1864148;75;21954;-72
2022/03/05 04:27:32;;;;;;;47.60;35.98;;;33.00;60.40;;;;;;1798196;79;22038;-73
2022/03/05 04:30:04;;;;;;;39.75;35.48;;;33.00;59.60;;;;;;1857428;76;21139;-73
2022/03/05 04:32:34;;;;;;;42.93;35.48;;;33.20;59.30;;;;;;1867737;76;21866;-73
2022/03/05 04:35:06;;;;;;;39.45;35.28;;;33.30;59.50;;;;;;1864205;75;21159;-74
2022/03/05 04:37:37;;;;;;;41.37;34.63;;;33.40;60.00;;;;;;1832111;77;21670;-74
2022/03/05 04:40:09;;;;;;;40.67;33.75;;;33.50;61.10;;;;;;1839773;77;21151;-74
2022/03/05 04:42:40;;;;;;;37.33;33.33;;;33.50;59.90;;;;;;1858660;76;21071;-74
2022/03/05 04:45:12;;;;;;;37.58;33.55;;;33.60;59.70;;;;;;1862542;76;21162;-72
2022/03/05 04:47:43;;;;;;;38.13;33.83;;;33.70;59.00;;;;;;1875907;75;21177;-73
2022/03/05 04:50:13;;;;;;;38.85;34.75;;;33.80;58.50;;;;;;1859243;77;21227;-73
2022/03/05 04:52:44;;;;;;;38.10;33.80;;;33.80;57.90;;;;;;1858626;76;21158;-72
2022/03/05 04:55:15;;;;;;;34.45;30.85;;;33.80;58.10;;;;;;1826035;77;21179;-72
2022/03/05 04:57:45;;;;;;;37.03;32.42;;;33.90;56.70;;;;;;1861187;76;21075;-71
2022/03/05 05:00:16;;;;;;;36.08;32.25;;;33.90;57.40;;;;;;1861972;75;21149;-72
2022/03/05 05:02:46;;;;;;;36.60;32.53;;;;;;;;;;1829001;77;21127;-72
2022/03/05 05:05:17;;;;;;;34.00;30.32;;;34.10;56.30;;;;;;1834285;78;21158;-72
2022/03/05 05:07:47;;;;;;;36.65;32.40;;;34.20;56.30;;;;;;1854036;76;21712;-73
2022/03/05 05:10:18;;;;;;;37.13;32.55;;;34.20;56.70;;;;;;1855204;77;21162;-73
2022/03/05 05:12:50;;;;;;;36.77;32.88;;;34.30;57.20;;;;;;1862891;77;21628;-73
2022/03/05 05:15:20;;;;;;;38.28;34.03;;;34.30;56.20;;;;;;1779947;79;21210;-73
2022/03/05 05:17:51;;;;;;;37.15;33.35;;;34.40;56.10;;;;;;1775893;79;21124;-71
2022/03/05 05:20:22;;;;;;;37.05;33.25;;;34.40;55.60;;;;;;1792208;80;21677;-71
2022/03/05 05:22:53;;;;;;;36.73;31.52;;;34.50;55.10;;;;;;1783472;80;21328;-72
2022/03/05 05:25:23;;;;;;;37.55;31.55;;;34.50;55.60;;;;;;1786471;80;21183;-71
2022/03/05 05:27:54;;;;;;;36.95;31.17;;;34.60;55.50;;;;;;1784637;80;21107;-71
2022/03/05 05:30:24;;;;;;;36.13;32.30;;;34.60;55.60;;;;;;1782292;78;21133;-71
2022/03/05 05:32:55;;;;;;;36.17;32.42;;;34.60;55.40;;;;;;1781764;80;21186;-71
2022/03/05 05:35:26;;;;;;;43.30;33.42;;;34.70;56.20;;;;;;1783183;80;21268;-71
2022/03/05 05:37:56;;;;;;;42.50;38.00;;;34.70;55.70;;;;;;1790799;80;21276;-71
2022/03/05 05:40:27;;;;;;;38.17;32.42;;;34.80;56.00;;;;;;1787455;80;21072;-73
2022/03/05 05:42:58;;;;;;;35.10;31.60;;;34.80;56.30;;;;;;1787147;78;21163;-73
2022/03/05 05:45:29;;;;;;;36.70;32.20;;;34.80;56.00;;;;;;1791242;80;21593;-73
2022/03/05 05:48:01;;;;;;;38.67;34.48;;;34.70;55.80;;;;;;1789023;80;21190;-72
2022/03/05 05:50:32;;;;;;;37.95;33.85;;;34.70;55.90;;;;;;1782811;80;21233;-72
2022/03/05 05:53:03;;;;;;;37.00;32.85;;;34.80;56.30;;;;;;1789805;80;21134;-72
2022/03/05 05:55:34;;;;;;;38.85;34.67;;;34.80;55.70;;;;;;1807160;79;21635;-72
2022/03/05 05:58:05;;;;;;;35.70;31.95;;;34.90;56.30;;;;;;1809042;78;21151;-72
2022/03/05 06:00:36;;;;;;;44.48;36.88;;;34.90;54.30;;;;;;1799620;79;21214;-72
2022/03/05 06:03:07;;;;;;;38.75;34.35;;;34.80;54.50;;;;;;1802608;79;21151;-72
2022/03/05 06:05:37;;;;;;;39.05;32.35;;;34.90;54.50;;;;;;1812142;78;21692;-71
2022/03/05 06:08:08;;;;;;;36.75;31.37;;;35.00;55.80;;;;;;1807897;78;21300;-72
2022/03/05 06:10:39;;;;;;;35.80;31.75;;;35.00;54.90;;;;;;1780867;80;21225;-72
2022/03/05 06:13:10;;;;;;;33.58;30.05;;;35.00;54.90;;;;;;1785942;80;21127;-72
2022/03/05 06:15:41;;;;;;;40.60;32.42;;;35.00;55.20;;;;;;1787252;78;21614;-72
2022/03/05 06:18:12;;;;;;;34.35;30.45;;;34.90;55.70;;;;;;1801949;79;21708;-72
2022/03/05 06:20:44;;;;;;;35.38;30.15;;;35.00;55.80;;;;;;1810987;78;21692;-72
2022/03/05 06:23:14;;;;;;;34.30;29.67;;;34.90;55.70;;;;;;1813124;79;21144;-72
2022/03/05 06:25:46;;;;;;;38.23;34.08;;;34.80;55.60;;;;;;1806756;78;21646;-71
2022/03/05 06:28:17;;;;;;;37.45;32.63;;;34.70;55.60;;;;;;1806397;78;21221;-73
2022/03/05 06:30:47;;;;;;;43.28;38.17;;;34.60;55.60;;;;;;1811917;79;21149;-73
2022/03/05 06:33:18;;;;;;;39.25;34.10;;;34.60;56.40;;;;;;1808158;79;21197;-72
2022/03/05 06:35:49;;;;;;;34.10;30.50;;;34.60;55.90;;;;;;1833111;77;21157;-72
2022/03/05 06:38:20;;;;;;;33.70;30.30;;;34.70;55.80;;;;;;1837189;78;21232;-72
2022/03/05 06:40:52;;;;;;;33.33;29.98;;;34.80;54.60;;;;;;1837563;78;21182;-73
2022/03/05 06:43:41;;;;;;;36.15;32.30;;;34.90;54.50;;;;;;1836796;78;21200;-73
2022/03/05 06:46:13;;;;;;;37.83;32.60;;;35.00;54.60;;;;;;1784856;78;21727;-72
2022/03/05 06:48:46;;;;;;;35.65;30.05;;;35.10;55.70;;;;;;1810282;78;21163;-72
2022/03/05 06:51:16;;;;;;;34.73;31.07;;;35.10;53.50;;;;;;1819614;78;21645;-73
2022/03/05 06:53:47;;;;;;;42.73;31.90;;;35.20;53.80;;;;;;1817753;78;21153;-71
2022/03/05 06:56:17;;;;;;;34.27;30.75;;;35.20;53.50;;;;;;1756717;81;21149;-73
2022/03/05 06:58:48;;;;;;;32.40;28.73;;;35.20;53.70;;;;;;1820999;78;21244;-71
2022/03/05 07:01:19;;;;;;;35.52;31.70;;;35.30;53.40;;;;;;1821697;78;21252;-72
2022/03/05 07:03:50;;;;;;;33.02;29.63;;;35.30;53.20;;;;;;1818829;78;21166;-72
2022/03/05 07:06:21;;;;;;;35.38;31.57;;;35.30;53.00;;;;;;1796982;78;21686;-73
2022/03/05 07:08:52;;;;;;;34.98;30.70;;;35.40;53.40;;;;;;1816819;78;21216;-73
2022/03/05 07:11:23;;;;;;;32.08;28.50;;;35.40;53.40;;;;;;1802875;78;21607;-73
2022/03/05 07:13:53;;;;;;;33.65;30.08;;;35.40;53.20;;;;;;1819546;78;21178;-73
2022/03/05 07:16:24;;;;;;;31.45;28.35;;;35.40;53.00;;;;;;1823315;78;21683;-72
2022/03/05 07:18:56;;;;;;;32.93;27.48;;;35.30;52.60;;;;;;1740412;81;21217;-72
2022/03/05 07:21:27;;;;;;;31.50;27.37;;;35.30;52.10;;;;;;1807086;78;21161;-72
2022/03/05 07:24:02;;;;;;;30.97;27.77;;;35.30;51.70;;;;;;1798290;78;21242;-72
2022/03/05 07:26:30;;;;;;;29.10;25.97;;;35.40;51.80;;;;;;1812814;78;21236;-73
2022/03/05 07:29:13;;;;;;;35.25;28.52;;;35.40;50.70;;;;;;1817533;78;21190;-72
2022/03/05 07:31:35;;;;;;;37.08;30.37;;;35.40;51.00;;;;;;1814971;77;21192;-72
2022/03/05 07:34:06;;;;;;;34.48;30.12;;;35.40;51.00;;;;;;1816816;78;21115;-72
2022/03/05 07:36:37;;;;;;;32.40;28.95;;;35.40;51.10;;;;;;1814783;78;21281;-72
2022/03/05 07:39:08;;;;;;;36.17;32.23;;;35.50;50.90;;;;;;1813650;78;22324;-72
2022/03/05 07:41:39;;;;;;;35.00;29.63;;;35.50;51.50;;;;;;1814250;78;21593;-72
2022/03/05 07:44:10;;;;;;;33.30;28.02;;;35.40;51.60;;;;;;1817252;78;21244;-72
2022/03/05 07:46:41;;;;;;;31.35;27.80;;;35.50;51.10;;;;;;1814927;78;21205;-72
2022/03/05 07:49:12;;;;;;;35.23;27.75;;;35.50;50.40;;;;;;1799232;78;21263;-72
2022/03/05 07:51:43;;;;;;;30.77;26.37;;;35.40;50.30;;;;;;1809651;78;21140;-72
2022/03/05 07:54:14;;;;;;;33.42;28.25;;;35.40;49.70;;;;;;1793372;78;21145;-72
2022/03/05 07:56:46;;;;;;;32.53;29.05;;;35.40;49.60;;;;;;1803886;78;21123;-72
2022/03/05 07:59:17;;;;;;;34.13;28.55;;;35.40;50.10;;;;;;1753589;81;21779;-72
2022/03/05 08:01:48;;;;;;;33.35;29.70;;;35.40;50.50;;;;;;1730716;81;21163;-72
2022/03/05 08:04:19;;;;;;;32.00;28.57;;;35.40;50.50;;;;;;1786248;78;21211;-73
2022/03/05 08:06:50;;;;;;;30.95;27.52;;;35.40;51.00;;;;;;1788995;78;21072;-73
2022/03/05 08:09:21;;;;;;;30.25;26.95;;;35.30;50.70;;;;;;1778251;80;21107;-73
2022/03/05 08:11:51;;;;;;;30.30;27.27;;;35.30;50.60;;;;;;1791427;79;21182;-73
2022/03/05 08:14:22;;;;;;;28.83;25.80;;;35.30;50.80;;;;;;1794254;78;21158;-73
2022/03/05 08:16:53;;;;;;;30.70;27.55;;;35.30;51.30;;;;;;1785176;78;21139;-73
2022/03/05 08:19:24;;;;;;;34.83;27.65;;;35.20;52.10;;;;;;1780072;79;21590;-73
2022/03/05 08:21:56;;;;;;;31.25;27.42;;;35.20;51.10;;;;;;1786078;78;21713;-73
2022/03/05 08:24:27;;;;;;;30.95;27.80;;;35.20;51.10;;;;;;1799220;78;21142;-73
2022/03/05 08:26:57;;;;;;;30.92;27.48;;;35.20;51.10;;;;;;1793198;78;21210;-73
2022/03/05 08:29:28;;;;;;;29.72;26.87;;;35.10;51.30;;;;;;1791435;80;21151;-73
2022/03/05 08:31:59;;;;;;;28.42;25.68;;;35.00;51.70;;;;;;1784242;79;22251;-73
2022/03/05 08:34:29;;;;;;;30.92;27.70;;;34.90;51.50;;;;;;1798109;78;21948;-73
2022/03/05 08:37:00;;;;;;;35.70;28.75;;;34.80;52.10;;;;;;1785739;79;21288;-73
2022/03/05 08:39:31;;;;;;;34.00;27.87;;;34.80;52.90;;;;;;1793131;78;21622;-74
2022/03/05 08:42:02;;;;;;;33.23;29.82;;;34.80;52.80;;;;;;1786968;79;21738;-74
2022/03/05 08:44:33;;;;;;;35.83;28.02;;;34.80;52.90;;;;;;1798357;78;21146;-72
2022/03/05 08:47:04;;;;;;;33.15;29.67;;;34.80;52.90;;;;;;1803061;78;21155;-72
2022/03/05 08:49:35;;;;;;;32.53;29.02;;;34.90;53.30;;;;;;1783324;78;21142;-73
2022/03/05 08:52:07;;;;;;;33.15;28.67;;;34.90;52.80;;;;;;1784415;80;21210;-74
2022/03/05 08:54:38;;;;;;;32.80;29.23;;;35.00;53.00;;;;;;1796380;79;21256;-72
2022/03/05 08:57:11;;;;;;;30.72;27.65;;;35.00;53.00;;;;;;1788929;79;21162;-72
2022/03/05 08:59:41;;;;;;;33.48;28.15;;;35.00;53.20;;;;;;1788258;78;21159;-72
2022/03/05 09:02:12;;;;;;;33.30;29.98;;;35.10;52.50;;;;;;1800183;78;21164;-72
2022/03/05 09:04:43;;;;;;;33.05;28.30;;;35.00;52.50;;;;;;1785645;78;21167;-73
2022/03/05 09:07:14;;;;;;;30.27;27.00;;;35.00;52.80;;;;;;1803913;78;21187;-73
2022/03/05 09:09:46;;;;;;;29.92;27.02;;;35.00;52.70;;;;;;1785050;78;21183;-73
2022/03/05 09:12:17;;;;;;;30.30;27.02;;;35.00;52.60;;;;;;1795437;79;21174;-73
2022/03/05 09:14:48;;;;;;;30.65;27.10;;;35.00;53.00;;;;;;1797664;79;21749;-73
2022/03/05 09:17:19;;;;;;;36.13;28.57;;;35.00;52.60;;;;;;1781864;80;21102;-73
2022/03/05 09:19:50;;;;;;;32.30;27.30;;;34.90;52.80;;;;;;1789325;78;21167;-73
2022/03/05 09:22:21;;;;;;;30.55;27.32;;;34.90;52.80;;;;;;1791807;78;21252;-72
2022/03/05 09:24:52;;;;;;;30.82;27.70;;;34.90;52.70;;;;;;1767207;79;21653;-72
2022/03/05 09:27:23;;;;;;;33.88;28.60;;;34.90;53.00;;;;;;1809352;78;21214;-72
2022/03/05 09:29:53;;;;;;;33.45;28.52;;;34.80;52.80;;;;;;1785645;79;21590;-72
2022/03/05 09:32:24;;;;;;;30.30;26.95;;;34.80;52.90;;;;;;1797069;78;21179;-72
2022/03/05 09:34:59;;;;;;;29.45;26.45;;;34.80;53.00;;;;;;1758268;81;21121;-72
2022/03/05 09:37:28;;;;;;;30.15;26.77;;;34.70;52.80;;;;;;1781059;80;21599;-72
2022/03/05 09:39:59;;;;;;;30.30;27.13;;;34.60;53.20;;;;;;1782358;79;21214;-72
2022/03/05 09:42:30;;;;;;;30.08;27.07;;;34.50;53.50;;;;;;1779767;80;21092;-72
2022/03/05 09:45:03;;;;;;;27.50;24.32;;;34.50;53.70;;;;;;1782130;80;21227;-73
2022/03/05 09:47:35;;;;;;;28.25;25.30;;;34.40;53.60;;;;;;1783482;79;21120;-72
2022/03/05 09:50:07;;;;;;;28.38;25.35;;;34.40;53.90;;;;;;1778656;79;21186;-72
2022/03/05 09:52:39;;;;;;;31.00;27.80;;;34.40;54.50;;;;;;1749629;82;21178;-72
2022/03/05 09:55:10;;;;;;;30.65;27.70;;;34.30;53.90;;;;;;1737942;81;21145;-72
2022/03/05 09:57:41;;;;;;;30.02;25.80;;;34.20;53.90;;;;;;1788962;78;22316;-72
2022/03/05 10:00:12;;;;;;;30.72;25.75;;;34.20;54.50;;;;;;1757129;81;21215;-72
2022/03/05 10:02:44;;;;;;;31.52;26.05;;;34.10;54.70;;;;;;1795506;78;21135;-72
2022/03/05 10:05:17;;;;;;;30.12;25.37;;;34.10;54.80;;;;;;1803738;78;21644;-72
2022/03/05 10:07:51;;;;;;;30.48;26.17;;;34.00;55.10;;;;;;1821613;77;21209;-72
2022/03/05 10:10:21;;;;;;;29.82;26.25;;;34.00;56.10;;;;;;1810145;78;21449;-72
2022/03/05 10:12:52;;;;;;;29.02;25.97;;;33.90;55.20;;;;;;1811718;78;21253;-72
2022/03/05 10:15:22;;;;;;;27.45;24.47;;;33.90;55.30;;;;;;1785106;78;21672;-71
2022/03/05 10:17:56;;;;;;;32.05;26.07;;;33.80;55.30;;;;;;1785501;78;21127;-71
2022/03/05 10:20:29;;;;;;;29.87;26.50;;;33.80;55.30;;;;;;1811755;78;21175;-72
2022/03/05 10:23:02;;;;;;;28.90;25.68;;;33.80;55.50;;;;;;1843331;78;21559;-71
2022/03/05 10:25:35;;;;;;;29.20;26.23;;;33.70;55.40;;;;;;1790481;78;21258;-71
2022/03/05 10:28:08;;;;;;;28.10;25.08;;;33.70;55.30;;;;;;1763170;78;21144;-71
2022/03/05 10:30:42;;;;;;;34.13;27.27;;;33.70;55.60;;;;;;1773681;80;21183;-72
2022/03/05 10:33:15;;;;;;;30.35;26.30;;;33.60;55.70;;;;;;1782031;79;21217;-71
2022/03/05 10:35:47;;;;;;;31.27;27.17;;;33.60;55.90;;;;;;1780939;78;21175;-71
2022/03/05 10:38:19;;;;;;;28.83;25.92;;;33.50;56.00;;;;;;1803921;78;21081;-71
2022/03/05 10:40:52;;;;;;;29.67;26.52;;;33.50;56.30;;;;;;1779625;79;21123;-73
2022/03/05 10:43:23;;;;;;;31.85;26.90;;;33.50;56.20;;;;;;1787722;79;21131;-73
2022/03/05 10:45:58;;;;;;;32.93;27.07;;;33.40;56.20;;;;;;1793841;79;21230;-71
2022/03/05 10:48:31;;;;;;;31.48;28.07;;;33.40;56.20;;;;;;1786791;79;21721;-72
2022/03/05 10:51:01;;;;;;;34.45;28.55;;;33.40;56.40;;;;;;1782162;79;21155;-84
2022/03/05 10:53:34;;;;;;;37.03;28.32;;;33.40;56.40;;;;;;1797513;79;21169;-83
2022/03/05 10:56:07;;;;;;;34.13;29.25;;;33.30;56.60;;;;;;1793142;79;21206;-84
2022/03/05 10:58:38;;;;;;;35.03;28.70;;;33.30;56.20;;;;;;1768156;79;21230;-85
2022/03/05 11:01:09;;;;;;;33.28;29.55;;;33.20;56.80;;;;;;1782921;79;21124;-84
2022/03/05 11:03:40;;;;;;;38.67;29.98;;;33.20;57.00;;;;;;1770500;79;21111;-82
2022/03/05 11:06:10;;;;;;;40.48;31.68;;;33.20;57.00;;;;;;1776833;79;21155;-83
2022/03/05 11:08:42;;;;;;;37.05;31.40;;;33.20;57.00;;;;;;1830403;78;21196;-82
2022/03/05 11:11:15;;;;;;;40.40;32.30;;;33.20;57.10;;;;;;1784126;78;21178;-84
2022/03/05 11:13:46;;;;;;;38.35;33.18;;;33.20;57.10;;;;;;1817801;78;21149;-82
2022/03/05 11:16:17;;;;;;;38.53;31.80;;;33.20;57.20;;;;;;1822602;78;21186;-82
2022/03/05 11:18:48;;;;;;;36.75;30.62;;;33.20;57.30;;;;;;1795409;80;21250;-83
2022/03/05 11:21:24;;;;;;;40.67;33.18;;;33.20;57.40;;;;;;1781669;78;21167;-84
2022/03/05 11:23:56;;;;;;;40.92;34.00;;;33.20;57.60;;;;;;1788528;78;21173;-83
2022/03/05 11:26:30;;;;;;;48.45;38.73;;;33.10;57.70;;;;;;1748890;81;21210;-84
2022/03/05 11:29:02;;;;;;;39.83;35.68;;;33.10;58.10;;;;;;1779548;80;21229;-85
2022/03/05 11:31:35;;;;;;;37.73;33.63;;;33.10;58.40;;;;;;1782735;76;21208;-85
2022/03/05 11:34:08;;;;;;;41.53;35.78;;;33.00;58.50;;;;;;1756201;82;21300;-83
2022/03/05 11:36:39;;;;;;;36.93;32.73;;;33.00;58.70;;;;;;1751371;80;21201;-83
2022/03/05 11:39:14;;;;;;;37.00;32.55;;;33.00;58.70;;;;;;1750971;82;21158;-81
2022/03/05 11:41:47;;;;;;;39.65;32.00;;;32.90;58.40;;;;;;1731157;81;21164;-81
2022/03/05 11:44:19;;;;;;;36.50;32.40;;;32.90;58.70;;;;;;1794714;78;21142;-81
2022/03/05 11:46:51;;;;;;;35.65;31.15;;;32.90;58.80;;;;;;1792412;78;21171;-82
2022/03/05 11:49:22;;;;;;;36.90;32.05;;;32.90;58.80;;;;;;1804366;76;21618;-81
2022/03/05 11:51:55;;;;;;;37.65;32.25;;;32.90;58.70;;;;;;1795899;80;21150;-83
2022/03/05 11:54:27;;;;;;;37.30;33.18;;;32.90;58.90;;;;;;1794604;78;21135;-83
2022/03/05 11:57:03;;;;;;;36.60;32.70;;;32.80;58.90;;;;;;1804042;78;21189;-82
2022/03/05 11:59:36;;;;;;;37.20;33.18;;;32.80;59.40;;;;;;1814687;78;21112;-83
2022/03/05 12:02:07;;;;;;;37.55;33.28;;;32.80;59.20;;;;;;1795788;80;21085;-84
2022/03/05 12:04:40;;;;;;;40.98;34.40;;;32.70;59.00;;;;;;1791331;78;21640;-84
2022/03/05 12:07:13;;;;;;;43.23;36.45;;;32.70;59.10;;;;;;1796691;79;21651;-84
2022/03/05 12:09:46;;;;;;;42.73;38.10;;;32.70;59.10;;;;;;1796913;80;21232;-83
2022/03/05 12:12:20;;;;;;;45.30;40.45;;;32.70;59.20;;;;;;1795254;79;21479;-83
2022/03/05 12:14:53;;;;;;;50.48;38.85;;;32.70;60.00;;;;;;1796901;78;21199;-83
2022/03/05 12:17:25;;;;;;;41.25;36.33;;;32.70;59.20;;;;;;1797361;78;21174;-83
2022/03/05 12:19:57;;;;;;;44.25;36.30;;;32.60;59.20;;;;;;1818764;78;21142;-83
2022/03/05 12:22:27;;;;;;;41.65;36.95;;;32.60;59.20;;;;;;1819227;78;21653;-84
2022/03/05 12:24:58;;;;;;;41.00;34.05;;;32.60;59.30;;;;;;1800077;78;21131;-83
2022/03/05 12:27:31;;;;;;;45.60;36.30;;;32.50;59.30;;;;;;1823619;78;21124;-83
2022/03/05 12:30:01;;;;;;;41.13;35.10;;;32.50;59.50;;;;;;1798721;78;21151;-84
2022/03/05 12:32:34;;;;;;;41.53;34.85;;;32.50;59.50;;;;;;1809507;78;21264;-84
2022/03/05 12:35:07;;;;;;;39.65;34.92;;;32.50;59.70;;;;;;1797142;78;21227;-84
2022/03/05 12:37:38;;;;;;;45.25;36.08;;;32.50;59.90;;;;;;1797738;78;21589;-84
2022/03/05 12:40:09;;;;;;;42.00;36.93;;;32.50;59.90;;;;;;1766755;80;21199;-84
2022/03/05 12:42:42;;;;;;;42.43;36.33;;;32.40;60.00;;;;;;1809679;78;21083;-82
2022/03/05 12:45:16;;;;;;;39.92;35.63;;;32.40;60.00;;;;;;1797061;78;21072;-83
2022/03/05 12:47:47;;;;;;;40.80;35.73;;;32.40;60.10;;;;;;1792598;80;21718;-83
2022/03/05 12:50:21;;;;;;;40.23;34.83;;;32.40;60.20;;;;;;1787003;78;21183;-83